createdAt,value
2019-01-23T05:01:45.855Z,73.50
2019-01-23T05:04:20.992Z,80.47
2019-01-23T05:06:56.152Z,76.73
2019-01-23T05:09:31.211Z,81.27
2019-01-23T05:12:06.260Z,81.50
2019-01-23T05:14:41.348Z,80.63
2019-01-23T06:01:41.967Z,82.53
2019-01-23T06:04:16.799Z,89.77
2019-01-23T06:06:52.010Z,82.17
2019-01-23T06:09:14.443Z,85.23
2019-01-23T06:11:56.356Z,79.30
2019-01-23T06:14:31.407Z,86.73
2019-01-23T07:02:53.795Z,84.80
2019-01-23T07:05:28.930Z,82.00
2019-01-23T07:08:03.792Z,90.20
2019-01-23T07:10:39.022Z,89.77
2019-01-23T07:13:14.080Z,96.93
2019-01-23T08:02:30.023Z,85.50
2019-01-23T08:04:52.494Z,83.03
2019-01-23T08:07:27.542Z,80.07
2019-01-23T08:10:02.749Z,75.53
2019-01-23T08:12:38.792Z,83.23
2019-01-23T09:01:59.107Z,78.93
2019-01-23T09:04:35.499Z,78.73
2019-01-23T09:07:10.499Z,74.07
2019-01-23T09:09:45.493Z,82.30
2019-01-23T09:12:20.649Z,80.67
2019-01-23T09:14:55.605Z,83.73
2019-01-23T10:00:14.820Z,65.40
2019-01-23T10:02:51.370Z,67.90
2019-01-23T10:05:26.964Z,67.67
2019-01-23T10:08:01.506Z,71.17
2019-01-23T10:10:24.969Z,76.57
2019-01-23T10:13:06.955Z,68.53
2019-01-23T11:00:15.951Z,64.87
2019-01-23T11:02:51.435Z,70.50
2019-01-23T11:05:28.008Z,67.57
2019-01-23T11:08:03.026Z,71.63
2019-01-23T11:10:38.178Z,76.03
2019-01-23T11:13:13.243Z,62.93
2019-01-23T12:00:13.971Z,68.40
2019-01-23T12:02:49.623Z,68.73
2019-01-23T12:05:24.407Z,61.97
2019-01-23T12:07:47.196Z,67.73
2019-01-23T12:10:12.817Z,69.77
2019-01-23T12:12:35.386Z,66.60
2019-01-23T12:14:57.915Z,65.27
2019-01-23T13:00:38.721Z,64.47
2019-01-23T13:03:02.381Z,66.83
2019-01-23T13:05:25.048Z,65.93
2019-01-23T13:07:47.584Z,65.43
2019-01-23T13:10:22.607Z,67.03
2019-01-23T13:12:57.956Z,69.43
2019-01-23T14:00:29.127Z,68.80
2019-01-23T14:02:51.714Z,69.70
2019-01-23T14:05:14.652Z,68.10
2019-01-23T14:07:38.211Z,66.73
2019-01-23T14:10:00.757Z,63.30
2019-01-23T14:12:23.226Z,62.17
2019-01-23T14:14:45.978Z,61.10
2019-01-23T15:02:10.357Z,91.60
2019-01-23T15:04:33.093Z,90.20
2019-01-23T15:06:55.631Z,88.13
2019-01-23T15:09:18.173Z,79.63
2019-01-23T15:11:40.619Z,80.60
2019-01-23T15:14:03.666Z,95.47
2019-01-23T15:16:26.146Z,92.63
2019-01-23T15:18:48.702Z,80.33
2019-01-23T15:21:11.330Z,90.07
2019-01-23T15:23:33.882Z,78.67
2019-01-23T15:25:56.651Z,83.80
2019-01-23T15:28:31.155Z,90.80
2019-01-23T15:30:53.641Z,86.80
2019-01-23T15:33:16.198Z,83.03
2019-01-23T15:35:39.815Z,88.83
2019-01-23T15:38:02.307Z,84.60
2019-01-23T15:40:27.627Z,89.07
2019-01-23T15:42:50.342Z,88.20
2019-01-23T15:45:14.917Z,84.93
2019-01-23T15:47:37.537Z,79.60
2019-01-23T15:50:00.218Z,83.80
2019-01-23T15:52:22.709Z,89.10
2019-01-23T15:54:45.431Z,91.90
2019-01-23T15:57:08.576Z,89.23
2019-01-23T15:59:31.539Z,97.10
2019-01-23T16:01:54.010Z,92.27
2019-01-23T16:04:16.428Z,92.63
2019-01-23T16:06:39.585Z,95.87
2019-01-23T16:09:04.179Z,87.77
2019-01-23T16:11:27.816Z,89.50
2019-01-23T16:13:50.380Z,87.53
2019-01-23T17:02:01.434Z,104.27
2019-01-23T17:04:23.902Z,116.83
2019-01-23T17:06:46.401Z,108.13
2019-01-23T17:09:09.059Z,113.17
2019-01-23T17:11:31.595Z,118.73
2019-01-23T17:13:54.151Z,105.37
2019-01-23T18:15:25.443Z,125.83
2019-01-23T18:17:47.947Z,122.47
2019-01-23T18:20:13.664Z,121.20
2019-01-23T18:22:36.550Z,122.23
2019-01-23T18:25:11.785Z,123.13
2019-01-23T18:27:46.654Z,113.63
2019-01-23T19:02:35.865Z,104.60
2019-01-23T19:04:58.635Z,97.43
2019-01-23T19:07:21.162Z,99.60
2019-01-23T19:09:43.594Z,91.97
2019-01-23T19:12:06.342Z,94.57
2019-01-23T19:14:28.930Z,91.43
2019-01-23T20:02:17.834Z,79.93
2019-01-23T20:04:41.422Z,88.73
2019-01-23T20:07:03.964Z,88.00
2019-01-23T20:09:26.523Z,83.57
2019-01-23T20:11:49.806Z,80.10
2019-01-23T20:14:12.359Z,77.67
2019-01-23T21:01:54.477Z,101.60
2019-01-23T21:04:17.006Z,108.90
2019-01-23T21:06:39.436Z,98.97
2019-01-23T21:09:01.900Z,107.63
2019-01-23T21:11:26.230Z,110.13
2019-01-23T21:13:48.798Z,97.80
